History for KNYNEWYO677

New York City, New York, NY — Current Conditions
Daily Summary for August 22, 2017
  Current: High: Low: Average:
Temperature: 82.4°F 82.4°F 81.9°F 82.2°F
Dew Point: 68.4°F 68.4°F 65.5°F 66.4°F
Humidity: 62% 62% 57% 59%
Wind Speed: - 0.0mph - 0.0mph
Wind Gust: - 0.0mph - -
Wind: North - - North
Pressure: 29.79in 30.09in 29.79in -
Precipitation: 0.00in      
Statistics for the rest of the month
    High: Low: Average:
Temperature:   82.9°F 80.4°F 82.0°F
Dew Point:   69.1°F 59.5°F 64.3°F
Humidity:   64.0% 46.0% 54.6%
Wind Speed:   0.0mph from the North - 0.0mph
Wind Gust:   0.0mph from the North - -
Wind:   - - North
Pressure:   30.25in 29.76in -
Precipitation:   0.00in    
KNYNEWYO677 Weather Graph
Tabular Data for August 22, 2017
Time Temp. Heat Index Dew Point Pressure Wind Gust Humidity Rainfall
00:20 81.9°F 83.8°F 65.5°F 30.09in - 57% -
00:28 81.9°F 83.8°F 65.5°F 30.09in - 57% -
00:40 81.9°F 83.8°F 65.5°F 30.08in - 57% -
01:00 81.9°F 83.8°F 65.5°F 30.08in - 57% -
01:10 81.9°F 83.8°F 65.5°F 30.08in - 57% -
01:30 81.9°F 83.8°F 65.5°F 30.07in - 57% -
01:40 81.9°F 83.8°F 65.5°F 30.07in - 57% -
02:00 81.9°F 83.8°F 65.5°F 30.06in - 57% -
02:10 81.9°F 83.8°F 65.5°F 30.06in - 57% -
02:31 81.9°F 83.8°F 65.5°F 30.05in - 57% -
02:41 81.9°F 83.8°F 65.5°F 30.05in - 57% -
03:01 81.9°F 83.9°F 66.0°F 30.05in - 58% -
03:11 81.9°F 83.9°F 66.0°F 30.05in - 58% -
03:31 81.9°F 83.9°F 66.0°F 30.03in - 58% -
03:41 81.9°F 83.9°F 66.0°F 30.03in - 58% -
04:11 81.9°F 83.9°F 66.0°F 30.03in - 58% -
04:32 81.9°F 83.9°F 66.0°F 30.03in - 58% -
04:42 81.9°F 83.9°F 66.0°F 30.03in - 58% -
05:02 81.9°F 83.9°F 66.0°F 30.03in - 58% -
05:12 81.9°F 83.9°F 66.0°F 30.03in - 58% -
05:32 81.9°F 83.9°F 66.0°F 30.03in - 58% -
05:42 81.9°F 83.9°F 66.0°F 30.03in - 58% -
06:02 81.9°F 83.9°F 66.0°F 30.03in - 58% -
06:12 81.9°F 83.9°F 66.0°F 30.03in - 58% -
06:32 81.9°F 83.9°F 66.0°F 30.03in - 58% -
06:43 81.9°F 83.9°F 66.0°F 30.03in - 58% -
07:03 81.9°F 83.9°F 66.0°F 30.02in - 58% -
07:13 81.9°F 83.9°F 66.0°F 30.02in - 58% -
07:43 81.9°F 83.9°F 66.0°F 30.02in - 58% -
08:13 81.9°F 83.9°F 66.0°F 30.02in - 58% -
08:33 81.9°F 83.9°F 66.0°F 30.01in - 58% -
08:43 81.9°F 84.1°F 66.4°F 30.01in - 59% -
09:04 81.9°F 84.1°F 66.4°F 30.01in - 59% -
09:14 81.9°F 84.1°F 66.4°F 30.01in - 59% -
09:34 81.9°F 84.1°F 66.4°F 30.00in - 59% -
09:44 81.9°F 84.1°F 66.4°F 30.00in - 59% -
10:14 81.9°F 84.1°F 66.4°F 29.99in - 59% -
10:44 81.9°F 84.3°F 66.9°F 29.99in - 60% -
11:15 81.9°F 84.3°F 66.9°F 29.98in - 60% -
11:45 81.9°F 84.3°F 66.9°F 29.97in - 60% -
11:55 81.9°F 84.3°F 66.9°F 29.96in - 60% -
12:45 82.0°F 84.4°F 67.1°F 29.94in - 60% -
13:05 82.0°F 84.8°F 67.6°F 29.94in - 61% -
13:41 82.0°F 84.8°F 67.6°F 29.93in - 61% -
14:11 82.0°F 84.8°F 67.6°F 29.91in - 61% -
14:41 82.0°F 84.8°F 67.6°F 29.89in - 61% -
15:11 82.2°F 85.1°F 68.2°F 29.86in - 62% -
15:42 82.2°F 85.1°F 68.2°F 29.84in - 62% -
16:12 82.2°F 85.1°F 68.2°F 29.83in - 62% -
16:47 82.2°F 85.1°F 68.2°F 29.81in - 62% -
17:17 82.4°F 85.4°F 68.4°F 29.81in - 62% -
17:48 82.4°F 85.4°F 68.4°F 29.79in - 62% -
Comma Delimited File
Powered by Weather Underground, Inc.